createdAt,value
2023-01-13T00:00:07.000Z,90.38
2023-01-13T00:05:07.000Z,90.16
2023-01-13T00:09:52.000Z,90.44
2023-01-13T00:15:07.000Z,90.09
2023-01-13T00:20:07.000Z,89.60
2023-01-13T00:25:07.000Z,89.14
2023-01-13T00:30:07.000Z,89.16
2023-01-13T00:35:07.000Z,88.25
2023-01-13T00:39:52.000Z,87.30
2023-01-13T00:45:07.000Z,88.26
2023-01-13T00:50:07.000Z,88.44
2023-01-13T00:55:07.000Z,89.09
2023-01-13T00:59:53.000Z,89.81
2023-01-13T01:04:52.000Z,90.22
2023-01-13T01:09:53.000Z,89.08
2023-01-13T01:15:07.000Z,88.17
2023-01-13T01:20:07.000Z,89.26
2023-01-13T01:25:07.000Z,88.75
2023-01-13T01:30:07.000Z,88.91
2023-01-13T01:35:07.000Z,89.00
2023-01-13T01:39:52.000Z,89.11
2023-01-13T01:45:07.000Z,89.05
2023-01-13T01:50:07.000Z,89.45
2023-01-13T01:55:07.000Z,89.40
2023-01-13T01:59:52.000Z,89.59
2023-01-13T02:04:52.000Z,89.87
2023-01-13T02:10:07.000Z,90.49
2023-01-13T02:15:07.000Z,91.41
2023-01-13T02:19:52.000Z,91.94
2023-01-13T02:24:52.000Z,92.14
2023-01-13T02:29:52.000Z,92.50
2023-01-13T02:34:52.000Z,93.11
2023-01-13T02:39:52.000Z,93.35
2023-01-13T02:44:53.000Z,93.64
2023-01-13T02:50:07.000Z,94.28
2023-01-13T02:54:52.000Z,94.46
2023-01-13T02:59:52.000Z,95.14
2023-01-13T03:04:52.000Z,95.28
2023-01-13T03:09:52.000Z,95.49
2023-01-13T03:15:07.000Z,95.84
2023-01-13T03:20:07.000Z,96.43
2023-01-13T03:24:52.000Z,96.61
2023-01-13T03:29:52.000Z,96.67
2023-01-13T03:34:52.000Z,96.87
2023-01-13T03:40:07.000Z,96.99
2023-01-13T03:45:07.000Z,97.30
2023-01-13T03:50:07.000Z,97.77
2023-01-13T03:54:52.000Z,98.35
2023-01-13T04:00:07.000Z,98.63
2023-01-13T04:04:52.000Z,99.01
2023-01-13T04:10:07.000Z,99.42
2023-01-13T04:15:07.000Z,99.86
2023-01-13T04:19:52.000Z,98.13
2023-01-13T04:24:52.000Z,98.70
2023-01-13T04:29:52.000Z,100.86
2023-01-13T04:34:52.000Z,101.44
2023-01-13T04:40:07.000Z,101.94
2023-01-13T04:44:52.000Z,102.29
2023-01-13T04:49:52.000Z,102.58
2023-01-13T04:54:52.000Z,102.82
2023-01-13T04:59:52.000Z,102.99
2023-01-13T05:05:07.000Z,103.17
2023-01-13T05:10:07.000Z,103.20
2023-01-13T05:14:53.000Z,103.38
2023-01-13T05:19:52.000Z,103.55
2023-01-13T05:25:07.000Z,103.61
2023-01-13T05:30:07.000Z,103.76
2023-01-13T05:35:07.000Z,103.79
2023-01-13T05:40:07.000Z,103.79
2023-01-13T05:44:52.000Z,103.76
2023-01-13T05:49:52.000Z,103.73
2023-01-13T05:54:52.000Z,102.99
2023-01-13T05:59:52.000Z,102.72
2023-01-13T06:05:07.000Z,103.28
2023-01-13T06:10:07.000Z,103.19
2023-01-13T06:14:52.000Z,102.63
2023-01-13T06:19:52.000Z,102.60
2023-01-13T06:24:52.000Z,104.02
2023-01-13T06:30:07.000Z,104.14
2023-01-13T06:35:07.000Z,104.14
2023-01-13T06:39:52.000Z,104.02
2023-01-13T06:44:52.000Z,103.40
2023-01-13T06:49:52.000Z,103.81
2023-01-13T06:55:07.000Z,104.02
2023-01-13T07:00:08.000Z,104.16
2023-01-13T07:05:07.000Z,104.02
2023-01-13T07:09:52.000Z,103.79
2023-01-13T07:14:52.000Z,103.58
2023-01-13T07:19:52.000Z,103.25
2023-01-13T07:24:52.000Z,103.37
2023-01-13T07:29:52.000Z,103.51
2023-01-13T07:35:08.000Z,103.87
2023-01-13T07:39:53.000Z,103.52
2023-01-13T07:45:08.000Z,103.87
2023-01-13T07:49:53.000Z,104.37
2023-01-13T07:55:08.000Z,104.17
2023-01-13T08:00:07.000Z,103.55
2023-01-13T08:04:52.000Z,103.63
2023-01-13T08:09:52.000Z,103.76
2023-01-13T08:15:07.000Z,103.05
2023-01-13T08:20:10.000Z,103.25
2023-01-13T08:25:07.000Z,103.05
2023-01-13T08:30:07.000Z,103.66
2023-01-13T08:34:52.000Z,103.73
2023-01-13T08:39:52.000Z,103.25
2023-01-13T08:44:52.000Z,103.34
2023-01-13T08:50:07.000Z,103.13
2023-01-13T08:54:52.000Z,103.73
2023-01-13T09:00:08.000Z,103.87
2023-01-13T09:04:53.000Z,103.42
2023-01-13T09:09:52.000Z,103.37
2023-01-13T09:14:52.000Z,103.78
2023-01-13T09:19:53.000Z,103.92
2023-01-13T09:25:08.000Z,103.31
2023-01-13T09:30:07.000Z,103.40
2023-01-13T09:34:52.000Z,103.45
2023-01-13T09:39:52.000Z,103.75
2023-01-13T09:44:52.000Z,103.30
2023-01-13T09:49:52.000Z,103.72
2023-01-13T09:55:07.000Z,103.47
2023-01-13T10:00:07.000Z,103.38
2023-01-13T10:04:52.000Z,103.70
2023-01-13T10:09:52.000Z,104.50
2023-01-13T10:14:53.000Z,104.53
2023-01-13T10:20:07.000Z,104.49
2023-01-13T10:24:53.000Z,104.07
2023-01-13T10:29:52.000Z,103.89
2023-01-13T10:34:52.000Z,103.74
2023-01-13T10:39:53.000Z,103.64
2023-01-13T10:44:53.000Z,103.95
2023-01-13T10:50:07.000Z,104.06
2023-01-13T10:55:07.000Z,104.18
2023-01-13T10:59:53.000Z,104.27
2023-01-13T11:05:08.000Z,103.88
2023-01-13T11:10:07.000Z,103.76
2023-01-13T11:15:07.000Z,104.18
2023-01-13T11:20:08.000Z,104.12
2023-01-13T11:25:08.000Z,104.27
2023-01-13T11:29:52.000Z,104.66
2023-01-13T11:35:07.000Z,104.23
2023-01-13T11:40:08.000Z,103.83
2023-01-13T11:45:07.000Z,103.83
2023-01-13T11:50:07.000Z,104.34
2023-01-13T11:55:07.000Z,103.21
2023-01-13T11:59:53.000Z,103.07
2023-01-13T12:05:08.000Z,103.21
2023-01-13T12:09:53.000Z,103.28
2023-01-13T12:15:07.000Z,103.28
2023-01-13T12:20:07.000Z,103.10
2023-01-13T12:24:53.000Z,102.98
2023-01-13T12:29:53.000Z,102.83
2023-01-13T12:34:53.000Z,102.57
2023-01-13T12:39:53.000Z,102.45
2023-01-13T12:45:07.000Z,102.31
2023-01-13T12:50:08.000Z,102.28
2023-01-13T12:54:53.000Z,102.34
2023-01-13T12:59:53.000Z,102.31
2023-01-13T13:05:07.000Z,102.34
2023-01-13T13:09:53.000Z,102.39
2023-01-13T13:15:08.000Z,102.33
2023-01-13T13:20:08.000Z,102.22
2023-01-13T13:24:53.000Z,102.41
2023-01-13T13:29:53.000Z,102.70
2023-01-13T13:34:53.000Z,102.46
2023-01-13T13:39:53.000Z,102.22
2023-01-13T13:45:08.000Z,102.22
2023-01-13T13:49:53.000Z,102.01
2023-01-13T13:54:53.000Z,102.06
2023-01-13T13:59:53.000Z,101.77
2023-01-13T14:04:53.000Z,101.26
2023-01-13T14:10:08.000Z,100.97
2023-01-13T14:14:53.000Z,100.79
2023-01-13T14:19:53.000Z,100.75
2023-01-13T14:24:53.000Z,100.34
2023-01-13T14:29:53.000Z,99.88
2023-01-13T14:34:53.000Z,99.88
2023-01-13T14:39:53.000Z,99.56
2023-01-13T14:44:53.000Z,99.35
2023-01-13T14:49:53.000Z,99.39
2023-01-13T14:54:53.000Z,99.57
2023-01-13T14:59:53.000Z,99.80
2023-01-13T15:04:53.000Z,99.95
2023-01-13T15:10:08.000Z,99.98
2023-01-13T15:14:53.000Z,100.12
2023-01-13T15:19:53.000Z,100.22
2023-01-13T15:24:53.000Z,100.02
2023-01-13T15:29:53.000Z,100.19
2023-01-13T15:35:08.000Z,100.40
2023-01-13T15:40:08.000Z,100.61
2023-01-13T15:44:53.000Z,100.74
2023-01-13T15:49:53.000Z,100.82
2023-01-13T15:54:53.000Z,100.77
2023-01-13T15:59:53.000Z,100.94
2023-01-13T16:05:08.000Z,101.18
2023-01-13T16:09:53.000Z,101.32
2023-01-13T16:14:53.000Z,101.48
2023-01-13T16:19:53.000Z,101.56
2023-01-13T16:24:53.000Z,101.54
2023-01-13T16:29:53.000Z,101.59
2023-01-13T16:34:53.000Z,101.67
2023-01-13T16:40:08.000Z,101.80
2023-01-13T16:44:53.000Z,101.92
2023-01-13T16:49:53.000Z,102.03
2023-01-13T16:54:53.000Z,102.09
2023-01-13T16:59:53.000Z,102.27
2023-01-13T17:05:08.000Z,102.39
2023-01-13T17:09:53.000Z,102.45
2023-01-13T17:14:53.000Z,102.28
2023-01-13T17:19:53.000Z,102.16
2023-01-13T17:24:53.000Z,102.04
2023-01-13T17:30:08.000Z,102.02
2023-01-13T17:34:53.000Z,102.08
2023-01-13T17:39:53.000Z,102.20
2023-01-13T17:44:53.000Z,102.25
2023-01-13T17:49:53.000Z,102.23
2023-01-13T17:54:53.000Z,102.26
2023-01-13T17:59:53.000Z,103.15
2023-01-13T18:04:53.000Z,102.35
2023-01-13T18:09:53.000Z,102.44
2023-01-13T18:14:53.000Z,102.44
2023-01-13T18:19:53.000Z,102.80
2023-01-13T18:25:08.000Z,102.60
2023-01-13T18:29:53.000Z,102.66
2023-01-13T18:34:53.000Z,102.69
2023-01-13T18:39:53.000Z,102.78
2023-01-13T18:44:53.000Z,102.83
2023-01-13T18:49:53.000Z,102.96
2023-01-13T18:54:53.000Z,102.92
2023-01-13T18:59:53.000Z,102.51
2023-01-13T19:04:53.000Z,102.25
2023-01-13T19:09:53.000Z,101.89
2023-01-13T19:14:53.000Z,101.48
2023-01-13T19:20:08.000Z,100.96
2023-01-13T19:24:53.000Z,100.93
2023-01-13T19:29:53.000Z,100.80
2023-01-13T19:34:53.000Z,100.74
2023-01-13T19:39:53.000Z,100.42
2023-01-13T19:44:53.000Z,100.36
2023-01-13T19:49:53.000Z,100.29
2023-01-13T19:54:53.000Z,100.29
2023-01-13T19:59:53.000Z,100.37
2023-01-13T20:04:53.000Z,100.49
2023-01-13T20:09:53.000Z,100.64
2023-01-13T20:14:53.000Z,100.77
2023-01-13T20:20:09.000Z,100.88
2023-01-13T20:24:53.000Z,101.08
2023-01-13T20:29:53.000Z,101.08
2023-01-13T20:34:53.000Z,100.91
2023-01-13T20:39:53.000Z,100.52
2023-01-13T20:44:53.000Z,100.29
2023-01-13T20:49:53.000Z,100.25
2023-01-13T20:55:08.000Z,100.25
2023-01-13T20:59:53.000Z,100.67
2023-01-13T21:04:53.000Z,100.46
2023-01-13T21:09:53.000Z,100.40
2023-01-13T21:14:53.000Z,100.37
2023-01-13T21:19:53.000Z,100.00
2023-01-13T21:24:53.000Z,99.87
2023-01-13T21:29:53.000Z,99.41
2023-01-13T21:34:53.000Z,99.55
2023-01-13T21:39:53.000Z,99.84
2023-01-13T21:44:53.000Z,99.97
2023-01-13T21:49:53.000Z,100.15
2023-01-13T21:54:53.000Z,100.18
2023-01-13T21:59:53.000Z,100.23
2023-01-13T22:04:53.000Z,100.35
2023-01-13T22:09:53.000Z,100.53
2023-01-13T22:14:53.000Z,100.65
2023-01-13T22:19:53.000Z,100.77
2023-01-13T22:24:53.000Z,100.77
2023-01-13T22:30:08.000Z,100.97
2023-01-13T22:34:53.000Z,101.03
2023-01-13T22:39:53.000Z,101.15
2023-01-13T22:45:08.000Z,101.12
2023-01-13T22:49:53.000Z,101.23
2023-01-13T22:54:53.000Z,101.15
2023-01-13T22:59:53.000Z,101.21
2023-01-13T23:05:08.000Z,101.09
2023-01-13T23:09:53.000Z,100.98
2023-01-13T23:14:53.000Z,100.92
2023-01-13T23:19:53.000Z,100.96
2023-01-13T23:24:53.000Z,100.86
2023-01-13T23:29:53.000Z,100.67
2023-01-13T23:34:53.000Z,100.96
2023-01-13T23:39:53.000Z,101.28
2023-01-13T23:44:53.000Z,101.25
2023-01-13T23:49:53.000Z,101.35
2023-01-13T23:54:53.000Z,101.36
2023-01-13T23:59:53.000Z,101.31
